sensor_id;sensor_type;location;lat;lon;timestamp;P1;durP1;ratioP1;P2;durP2;ratioP2
8337;SDS011;4206;48.634;9.516;2023-06-26T00:00:03;9.47;;;6.63;;
8337;SDS011;4206;48.634;9.516;2023-06-26T00:02:31;9.90;;;6.40;;
8337;SDS011;4206;48.634;9.516;2023-06-26T00:04:59;7.60;;;6.30;;
8337;SDS011;4206;48.634;9.516;2023-06-26T00:07:29;8.67;;;6.67;;
8337;SDS011;4206;48.634;9.516;2023-06-26T00:09:57;8.83;;;6.90;;
8337;SDS011;4206;48.634;9.516;2023-06-26T00:12:25;7.30;;;6.20;;
8337;SDS011;4206;48.634;9.516;2023-06-26T00:14:52;8.00;;;6.37;;
8337;SDS011;4206;48.634;9.516;2023-06-26T00:17:19;8.63;;;6.70;;
8337;SDS011;4206;48.634;9.516;2023-06-26T00:19:46;8.40;;;5.60;;
8337;SDS011;4206;48.634;9.516;2023-06-26T00:22:14;12.30;;;6.80;;
8337;SDS011;4206;48.634;9.516;2023-06-26T00:24:41;11.43;;;7.27;;
8337;SDS011;4206;48.634;9.516;2023-06-26T00:27:08;9.10;;;6.33;;
8337;SDS011;4206;48.634;9.516;2023-06-26T00:29:35;7.57;;;6.17;;
8337;SDS011;4206;48.634;9.516;2023-06-26T00:32:01;9.27;;;6.87;;
8337;SDS011;4206;48.634;9.516;2023-06-26T00:34:28;10.30;;;7.00;;
8337;SDS011;4206;48.634;9.516;2023-06-26T00:36:55;8.00;;;6.30;;
8337;SDS011;4206;48.634;9.516;2023-06-26T00:39:22;8.30;;;6.07;;
8337;SDS011;4206;48.634;9.516;2023-06-26T00:41:52;10.00;;;6.60;;
8337;SDS011;4206;48.634;9.516;2023-06-26T00:44:20;8.60;;;6.20;;
8337;SDS011;4206;48.634;9.516;2023-06-26T00:46:48;10.67;;;7.03;;
8337;SDS011;4206;48.634;9.516;2023-06-26T00:49:15;9.17;;;7.10;;
8337;SDS011;4206;48.634;9.516;2023-06-26T00:51:42;9.10;;;6.60;;
8337;SDS011;4206;48.634;9.516;2023-06-26T00:54:10;8.37;;;7.07;;
8337;SDS011;4206;48.634;9.516;2023-06-26T00:56:37;9.20;;;6.60;;
8337;SDS011;4206;48.634;9.516;2023-06-26T00:59:05;9.80;;;6.50;;
8337;SDS011;4206;48.634;9.516;2023-06-26T01:01:32;7.77;;;6.90;;
8337;SDS011;4206;48.634;9.516;2023-06-26T01:03:58;10.30;;;7.83;;
8337;SDS011;4206;48.634;9.516;2023-06-26T01:06:26;16.67;;;6.97;;
8337;SDS011;4206;48.634;9.516;2023-06-26T01:08:58;11.00;;;7.30;;
8337;SDS011;4206;48.634;9.516;2023-06-26T01:11:26;10.90;;;7.80;;
8337;SDS011;4206;48.634;9.516;2023-06-26T01:13:53;10.00;;;6.73;;
8337;SDS011;4206;48.634;9.516;2023-06-26T01:16:22;8.93;;;7.47;;
8337;SDS011;4206;48.634;9.516;2023-06-26T01:18:50;10.20;;;7.50;;
8337;SDS011;4206;48.634;9.516;2023-06-26T01:21:18;9.60;;;6.70;;
8337;SDS011;4206;48.634;9.516;2023-06-26T01:26:35;8.40;;;6.73;;
8337;SDS011;4206;48.634;9.516;2023-06-26T01:29:04;8.27;;;6.43;;
8337;SDS011;4206;48.634;9.516;2023-06-26T01:31:34;8.07;;;6.27;;
8337;SDS011;4206;48.634;9.516;2023-06-26T01:34:01;9.10;;;7.20;;
8337;SDS011;4206;48.634;9.516;2023-06-26T01:36:28;13.67;;;7.20;;
8337;SDS011;4206;48.634;9.516;2023-06-26T01:38:55;8.70;;;6.70;;
8337;SDS011;4206;48.634;9.516;2023-06-26T01:41:22;10.23;;;6.90;;
8337;SDS011;4206;48.634;9.516;2023-06-26T01:46:36;9.47;;;7.20;;
8337;SDS011;4206;48.634;9.516;2023-06-26T01:51:35;10.97;;;7.10;;
8337;SDS011;4206;48.634;9.516;2023-06-26T01:54:09;10.50;;;7.47;;
8337;SDS011;4206;48.634;9.516;2023-06-26T01:56:43;10.13;;;7.57;;
8337;SDS011;4206;48.634;9.516;2023-06-26T01:59:14;8.87;;;7.17;;
8337;SDS011;4206;48.634;9.516;2023-06-26T02:01:43;8.27;;;6.30;;
8337;SDS011;4206;48.634;9.516;2023-06-26T02:04:10;9.70;;;7.40;;
8337;SDS011;4206;48.634;9.516;2023-06-26T02:06:37;10.23;;;6.90;;
8337;SDS011;4206;48.634;9.516;2023-06-26T02:09:03;8.20;;;6.70;;
8337;SDS011;4206;48.634;9.516;2023-06-26T02:11:30;7.77;;;6.50;;
8337;SDS011;4206;48.634;9.516;2023-06-26T02:13:57;10.67;;;7.47;;
8337;SDS011;4206;48.634;9.516;2023-06-26T02:16:24;8.70;;;7.00;;
8337;SDS011;4206;48.634;9.516;2023-06-26T02:18:51;9.23;;;7.17;;
8337;SDS011;4206;48.634;9.516;2023-06-26T02:21:18;9.30;;;6.73;;
8337;SDS011;4206;48.634;9.516;2023-06-26T02:23:45;8.17;;;6.63;;
8337;SDS011;4206;48.634;9.516;2023-06-26T02:26:11;10.50;;;7.20;;
8337;SDS011;4206;48.634;9.516;2023-06-26T02:28:38;9.70;;;7.10;;
8337;SDS011;4206;48.634;9.516;2023-06-26T02:31:05;11.00;;;7.33;;
8337;SDS011;4206;48.634;9.516;2023-06-26T02:33:32;9.50;;;7.00;;
8337;SDS011;4206;48.634;9.516;2023-06-26T02:35:59;13.50;;;7.03;;
8337;SDS011;4206;48.634;9.516;2023-06-26T02:38:26;9.03;;;7.03;;
8337;SDS011;4206;48.634;9.516;2023-06-26T02:40:52;10.07;;;7.10;;
8337;SDS011;4206;48.634;9.516;2023-06-26T02:43:19;10.27;;;7.60;;
8337;SDS011;4206;48.634;9.516;2023-06-26T02:45:46;9.20;;;7.27;;
8337;SDS011;4206;48.634;9.516;2023-06-26T02:48:13;10.03;;;7.40;;
8337;SDS011;4206;48.634;9.516;2023-06-26T02:50:40;8.13;;;6.60;;
8337;SDS011;4206;48.634;9.516;2023-06-26T02:53:07;8.00;;;6.67;;
8337;SDS011;4206;48.634;9.516;2023-06-26T02:55:34;9.40;;;7.20;;
8337;SDS011;4206;48.634;9.516;2023-06-26T02:58:01;9.80;;;6.93;;
8337;SDS011;4206;48.634;9.516;2023-06-26T03:00:28;11.20;;;7.57;;
8337;SDS011;4206;48.634;9.516;2023-06-26T03:02:56;11.87;;;7.27;;
8337;SDS011;4206;48.634;9.516;2023-06-26T03:05:23;8.47;;;7.20;;
8337;SDS011;4206;48.634;9.516;2023-06-26T03:07:50;10.40;;;7.43;;
8337;SDS011;4206;48.634;9.516;2023-06-26T03:10:17;10.27;;;7.07;;
8337;SDS011;4206;48.634;9.516;2023-06-26T03:12:44;10.00;;;7.20;;
8337;SDS011;4206;48.634;9.516;2023-06-26T03:15:11;10.27;;;7.83;;
8337;SDS011;4206;48.634;9.516;2023-06-26T03:17:38;10.00;;;7.20;;
8337;SDS011;4206;48.634;9.516;2023-06-26T03:20:05;9.00;;;7.47;;
8337;SDS011;4206;48.634;9.516;2023-06-26T03:22:33;11.70;;;7.63;;
8337;SDS011;4206;48.634;9.516;2023-06-26T03:25:01;11.23;;;6.90;;
8337;SDS011;4206;48.634;9.516;2023-06-26T03:27:28;9.63;;;7.27;;
8337;SDS011;4206;48.634;9.516;2023-06-26T03:29:55;9.80;;;7.03;;
8337;SDS011;4206;48.634;9.516;2023-06-26T03:32:22;10.97;;;7.27;;
8337;SDS011;4206;48.634;9.516;2023-06-26T03:34:49;9.67;;;7.60;;
8337;SDS011;4206;48.634;9.516;2023-06-26T03:37:16;8.47;;;7.20;;
8337;SDS011;4206;48.634;9.516;2023-06-26T03:39:43;10.10;;;7.70;;
8337;SDS011;4206;48.634;9.516;2023-06-26T03:42:10;7.70;;;6.40;;
8337;SDS011;4206;48.634;9.516;2023-06-26T03:44:37;15.83;;;8.00;;
8337;SDS011;4206;48.634;9.516;2023-06-26T03:47:03;10.60;;;7.27;;
8337;SDS011;4206;48.634;9.516;2023-06-26T03:49:30;10.23;;;7.20;;
8337;SDS011;4206;48.634;9.516;2023-06-26T03:51:57;10.10;;;7.57;;
8337;SDS011;4206;48.634;9.516;2023-06-26T03:54:24;11.47;;;6.87;;
8337;SDS011;4206;48.634;9.516;2023-06-26T03:56:52;11.87;;;7.73;;
8337;SDS011;4206;48.634;9.516;2023-06-26T03:59:19;10.30;;;8.30;;
8337;SDS011;4206;48.634;9.516;2023-06-26T04:01:45;11.80;;;7.87;;
8337;SDS011;4206;48.634;9.516;2023-06-26T04:04:12;9.87;;;7.20;;
8337;SDS011;4206;48.634;9.516;2023-06-26T04:06:39;10.60;;;7.50;;
8337;SDS011;4206;48.634;9.516;2023-06-26T04:09:06;10.07;;;8.07;;
8337;SDS011;4206;48.634;9.516;2023-06-26T04:11:33;9.30;;;7.30;;
8337;SDS011;4206;48.634;9.516;2023-06-26T04:14:00;8.60;;;7.07;;
8337;SDS011;4206;48.634;9.516;2023-06-26T04:16:27;11.37;;;7.80;;
8337;SDS011;4206;48.634;9.516;2023-06-26T04:18:55;17.10;;;8.07;;
8337;SDS011;4206;48.634;9.516;2023-06-26T04:21:23;10.53;;;7.80;;
8337;SDS011;4206;48.634;9.516;2023-06-26T04:23:51;13.40;;;8.00;;
8337;SDS011;4206;48.634;9.516;2023-06-26T04:26:18;10.77;;;7.50;;
8337;SDS011;4206;48.634;9.516;2023-06-26T04:28:44;11.17;;;7.70;;
8337;SDS011;4206;48.634;9.516;2023-06-26T04:31:11;10.53;;;7.33;;
8337;SDS011;4206;48.634;9.516;2023-06-26T04:33:38;11.73;;;7.80;;
8337;SDS011;4206;48.634;9.516;2023-06-26T04:36:08;13.40;;;8.43;;
8337;SDS011;4206;48.634;9.516;2023-06-26T04:38:35;13.50;;;8.17;;
8337;SDS011;4206;48.634;9.516;2023-06-26T04:41:02;10.70;;;7.30;;
8337;SDS011;4206;48.634;9.516;2023-06-26T04:43:29;14.50;;;8.10;;
8337;SDS011;4206;48.634;9.516;2023-06-26T04:45:56;11.90;;;7.90;;
8337;SDS011;4206;48.634;9.516;2023-06-26T04:48:23;11.23;;;7.40;;
8337;SDS011;4206;48.634;9.516;2023-06-26T04:50:50;9.53;;;7.10;;
8337;SDS011;4206;48.634;9.516;2023-06-26T04:53:20;14.00;;;8.90;;
8337;SDS011;4206;48.634;9.516;2023-06-26T04:55:49;10.00;;;8.03;;
8337;SDS011;4206;48.634;9.516;2023-06-26T04:58:17;10.30;;;7.90;;
8337;SDS011;4206;48.634;9.516;2023-06-26T05:00:44;11.10;;;7.90;;
8337;SDS011;4206;48.634;9.516;2023-06-26T05:03:12;11.00;;;7.53;;
8337;SDS011;4206;48.634;9.516;2023-06-26T05:05:40;11.63;;;8.00;;
8337;SDS011;4206;48.634;9.516;2023-06-26T05:08:15;10.23;;;7.70;;
8337;SDS011;4206;48.634;9.516;2023-06-26T05:10:44;10.00;;;8.00;;
8337;SDS011;4206;48.634;9.516;2023-06-26T05:13:11;9.43;;;7.10;;
8337;SDS011;4206;48.634;9.516;2023-06-26T05:15:41;11.13;;;8.23;;
8337;SDS011;4206;48.634;9.516;2023-06-26T05:18:08;10.80;;;7.77;;
8337;SDS011;4206;48.634;9.516;2023-06-26T05:20:35;10.30;;;7.53;;
8337;SDS011;4206;48.634;9.516;2023-06-26T05:23:03;12.40;;;7.83;;
8337;SDS011;4206;48.634;9.516;2023-06-26T05:25:30;8.97;;;7.07;;
8337;SDS011;4206;48.634;9.516;2023-06-26T05:27:58;10.27;;;7.20;;
8337;SDS011;4206;48.634;9.516;2023-06-26T05:30:26;10.53;;;6.37;;
8337;SDS011;4206;48.634;9.516;2023-06-26T05:32:54;11.70;;;8.30;;
8337;SDS011;4206;48.634;9.516;2023-06-26T05:35:21;11.20;;;7.90;;
8337;SDS011;4206;48.634;9.516;2023-06-26T05:37:49;11.47;;;7.60;;
8337;SDS011;4206;48.634;9.516;2023-06-26T05:40:18;9.40;;;7.73;;
8337;SDS011;4206;48.634;9.516;2023-06-26T05:42:45;10.13;;;8.03;;
8337;SDS011;4206;48.634;9.516;2023-06-26T05:45:12;10.40;;;7.00;;
8337;SDS011;4206;48.634;9.516;2023-06-26T05:47:40;11.10;;;7.00;;
8337;SDS011;4206;48.634;9.516;2023-06-26T05:50:07;11.13;;;8.03;;
8337;SDS011;4206;48.634;9.516;2023-06-26T05:52:36;9.53;;;6.67;;
8337;SDS011;4206;48.634;9.516;2023-06-26T05:55:05;15.80;;;7.30;;
8337;SDS011;4206;48.634;9.516;2023-06-26T05:57:32;12.10;;;8.00;;
8337;SDS011;4206;48.634;9.516;2023-06-26T06:00:01;12.97;;;8.07;;
8337;SDS011;4206;48.634;9.516;2023-06-26T06:02:32;9.63;;;7.37;;
8337;SDS011;4206;48.634;9.516;2023-06-26T06:04:59;8.30;;;7.00;;
8337;SDS011;4206;48.634;9.516;2023-06-26T06:07:26;11.20;;;8.33;;
8337;SDS011;4206;48.634;9.516;2023-06-26T06:09:53;10.77;;;8.00;;
8337;SDS011;4206;48.634;9.516;2023-06-26T06:12:20;9.60;;;7.43;;
8337;SDS011;4206;48.634;9.516;2023-06-26T06:14:46;10.00;;;6.97;;
8337;SDS011;4206;48.634;9.516;2023-06-26T06:17:13;11.23;;;7.27;;
8337;SDS011;4206;48.634;9.516;2023-06-26T06:19:40;7.47;;;6.50;;
8337;SDS011;4206;48.634;9.516;2023-06-26T06:22:07;12.00;;;7.40;;
8337;SDS011;4206;48.634;9.516;2023-06-26T06:24:34;7.33;;;6.50;;
8337;SDS011;4206;48.634;9.516;2023-06-26T06:27:01;10.60;;;7.13;;
8337;SDS011;4206;48.634;9.516;2023-06-26T06:29:28;7.90;;;6.77;;
8337;SDS011;4206;48.634;9.516;2023-06-26T06:31:56;9.17;;;6.73;;
8337;SDS011;4206;48.634;9.516;2023-06-26T06:34:23;8.67;;;6.80;;
8337;SDS011;4206;48.634;9.516;2023-06-26T06:36:50;7.03;;;6.30;;
8337;SDS011;4206;48.634;9.516;2023-06-26T06:39:17;8.67;;;7.50;;
8337;SDS011;4206;48.634;9.516;2023-06-26T06:41:44;8.13;;;7.00;;
8337;SDS011;4206;48.634;9.516;2023-06-26T06:44:11;12.60;;;6.73;;
8337;SDS011;4206;48.634;9.516;2023-06-26T06:46:37;8.37;;;7.27;;
8337;SDS011;4206;48.634;9.516;2023-06-26T06:49:04;9.83;;;7.70;;
8337;SDS011;4206;48.634;9.516;2023-06-26T06:51:31;8.37;;;6.93;;
8337;SDS011;4206;48.634;9.516;2023-06-26T06:53:58;11.60;;;6.97;;
8337;SDS011;4206;48.634;9.516;2023-06-26T06:56:25;9.70;;;7.23;;
8337;SDS011;4206;48.634;9.516;2023-06-26T06:58:52;11.53;;;7.60;;
8337;SDS011;4206;48.634;9.516;2023-06-26T07:01:19;10.90;;;6.87;;
8337;SDS011;4206;48.634;9.516;2023-06-26T07:03:46;8.07;;;6.43;;
8337;SDS011;4206;48.634;9.516;2023-06-26T07:06:13;7.83;;;6.60;;
8337;SDS011;4206;48.634;9.516;2023-06-26T07:08:40;10.53;;;7.00;;
8337;SDS011;4206;48.634;9.516;2023-06-26T07:11:07;8.07;;;6.70;;
8337;SDS011;4206;48.634;9.516;2023-06-26T07:13:33;10.10;;;6.50;;
8337;SDS011;4206;48.634;9.516;2023-06-26T07:16:00;7.80;;;5.83;;
8337;SDS011;4206;48.634;9.516;2023-06-26T07:18:27;7.30;;;6.30;;
8337;SDS011;4206;48.634;9.516;2023-06-26T07:20:54;8.10;;;6.70;;
8337;SDS011;4206;48.634;9.516;2023-06-26T07:23:21;7.80;;;6.57;;
8337;SDS011;4206;48.634;9.516;2023-06-26T07:25:48;9.27;;;6.53;;
8337;SDS011;4206;48.634;9.516;2023-06-26T07:28:15;8.90;;;6.70;;
8337;SDS011;4206;48.634;9.516;2023-06-26T07:30:42;9.10;;;6.87;;
8337;SDS011;4206;48.634;9.516;2023-06-26T07:33:09;10.43;;;6.83;;
8337;SDS011;4206;48.634;9.516;2023-06-26T07:35:36;6.63;;;5.70;;
8337;SDS011;4206;48.634;9.516;2023-06-26T07:38:04;8.90;;;5.80;;
8337;SDS011;4206;48.634;9.516;2023-06-26T07:40:31;6.93;;;5.90;;
8337;SDS011;4206;48.634;9.516;2023-06-26T07:42:58;7.43;;;5.13;;
8337;SDS011;4206;48.634;9.516;2023-06-26T07:45:25;6.30;;;5.70;;
8337;SDS011;4206;48.634;9.516;2023-06-26T07:47:52;6.87;;;5.70;;
8337;SDS011;4206;48.634;9.516;2023-06-26T07:50:19;7.10;;;6.10;;
8337;SDS011;4206;48.634;9.516;2023-06-26T07:52:49;6.80;;;5.50;;
8337;SDS011;4206;48.634;9.516;2023-06-26T07:55:16;5.87;;;5.37;;
8337;SDS011;4206;48.634;9.516;2023-06-26T07:57:43;7.60;;;5.37;;
8337;SDS011;4206;48.634;9.516;2023-06-26T08:00:12;7.83;;;5.37;;
8337;SDS011;4206;48.634;9.516;2023-06-26T08:02:39;8.43;;;4.70;;
8337;SDS011;4206;48.634;9.516;2023-06-26T08:05:06;6.25;;;4.78;;
8337;SDS011;4206;48.634;9.516;2023-06-26T08:07:34;5.50;;;4.68;;
8337;SDS011;4206;48.634;9.516;2023-06-26T08:10:01;5.32;;;4.82;;
8337;SDS011;4206;48.634;9.516;2023-06-26T08:12:27;5.05;;;4.55;;
8337;SDS011;4206;48.634;9.516;2023-06-26T08:14:55;5.03;;;4.40;;
8337;SDS011;4206;48.634;9.516;2023-06-26T08:17:43;4.90;;;4.50;;
8337;SDS011;4206;48.634;9.516;2023-06-26T08:20:11;6.95;;;5.18;;
8337;SDS011;4206;48.634;9.516;2023-06-26T08:22:39;5.18;;;4.53;;
8337;SDS011;4206;48.634;9.516;2023-06-26T08:25:06;5.60;;;4.95;;
8337;SDS011;4206;48.634;9.516;2023-06-26T08:27:33;5.15;;;4.65;;
8337;SDS011;4206;48.634;9.516;2023-06-26T08:30:00;6.68;;;4.82;;
8337;SDS011;4206;48.634;9.516;2023-06-26T08:32:27;5.43;;;4.93;;
8337;SDS011;4206;48.634;9.516;2023-06-26T08:34:54;5.40;;;4.90;;
8337;SDS011;4206;48.634;9.516;2023-06-26T08:37:21;5.63;;;4.68;;
8337;SDS011;4206;48.634;9.516;2023-06-26T08:39:48;4.40;;;4.00;;
8337;SDS011;4206;48.634;9.516;2023-06-26T08:42:15;5.60;;;5.00;;
8337;SDS011;4206;48.634;9.516;2023-06-26T08:44:42;6.03;;;4.40;;
8337;SDS011;4206;48.634;9.516;2023-06-26T08:47:27;4.82;;;4.32;;
8337;SDS011;4206;48.634;9.516;2023-06-26T08:55:18;7.05;;;4.68;;
8337;SDS011;4206;48.634;9.516;2023-06-26T08:57:51;5.95;;;5.10;;
8337;SDS011;4206;48.634;9.516;2023-06-26T09:00:19;17.02;;;4.90;;
8337;SDS011;4206;48.634;9.516;2023-06-26T09:02:47;6.97;;;4.93;;
8337;SDS011;4206;48.634;9.516;2023-06-26T09:05:14;6.10;;;4.68;;
8337;SDS011;4206;48.634;9.516;2023-06-26T09:07:41;4.78;;;4.38;;
8337;SDS011;4206;48.634;9.516;2023-06-26T09:10:08;6.00;;;4.80;;
8337;SDS011;4206;48.634;9.516;2023-06-26T09:12:36;4.90;;;4.50;;
8337;SDS011;4206;48.634;9.516;2023-06-26T09:15:04;6.93;;;5.40;;
8337;SDS011;4206;48.634;9.516;2023-06-26T09:17:33;4.85;;;4.35;;
8337;SDS011;4206;48.634;9.516;2023-06-26T09:20:07;9.65;;;5.50;;
8337;SDS011;4206;48.634;9.516;2023-06-26T09:22:37;5.35;;;4.85;;
8337;SDS011;4206;48.634;9.516;2023-06-26T09:25:05;4.80;;;4.40;;
8337;SDS011;4206;48.634;9.516;2023-06-26T09:27:33;5.80;;;4.63;;
8337;SDS011;4206;48.634;9.516;2023-06-26T09:30:02;5.82;;;5.32;;
8337;SDS011;4206;48.634;9.516;2023-06-26T09:32:30;5.57;;;5.07;;
8337;SDS011;4206;48.634;9.516;2023-06-26T09:34:57;5.63;;;5.13;;
8337;SDS011;4206;48.634;9.516;2023-06-26T09:37:26;5.45;;;4.65;;
8337;SDS011;4206;48.634;9.516;2023-06-26T09:39:53;8.65;;;5.70;;
8337;SDS011;4206;48.634;9.516;2023-06-26T09:42:20;5.63;;;5.10;;
8337;SDS011;4206;48.634;9.516;2023-06-26T09:44:48;5.82;;;5.30;;
8337;SDS011;4206;48.634;9.516;2023-06-26T09:47:15;6.25;;;5.28;;
8337;SDS011;4206;48.634;9.516;2023-06-26T09:49:44;5.60;;;5.13;;
8337;SDS011;4206;48.634;9.516;2023-06-26T09:52:15;5.60;;;5.10;;
8337;SDS011;4206;48.634;9.516;2023-06-26T09:54:43;6.28;;;5.68;;
8337;SDS011;4206;48.634;9.516;2023-06-26T09:57:12;7.90;;;5.25;;
8337;SDS011;4206;48.634;9.516;2023-06-26T09:59:41;5.93;;;5.50;;
8337;SDS011;4206;48.634;9.516;2023-06-26T10:02:11;5.15;;;4.75;;
8337;SDS011;4206;48.634;9.516;2023-06-26T10:04:39;5.43;;;4.93;;
8337;SDS011;4206;48.634;9.516;2023-06-26T10:07:08;5.95;;;5.45;;
8337;SDS011;4206;48.634;9.516;2023-06-26T10:09:40;5.68;;;5.18;;
8337;SDS011;4206;48.634;9.516;2023-06-26T10:12:11;5.45;;;4.88;;
8337;SDS011;4206;48.634;9.516;2023-06-26T10:14:44;5.75;;;5.25;;
8337;SDS011;4206;48.634;9.516;2023-06-26T10:17:15;6.90;;;5.43;;
8337;SDS011;4206;48.634;9.516;2023-06-26T10:19:44;6.25;;;5.75;;
8337;SDS011;4206;48.634;9.516;2023-06-26T10:22:12;6.53;;;5.18;;
8337;SDS011;4206;48.634;9.516;2023-06-26T10:24:41;6.78;;;5.47;;
8337;SDS011;4206;48.634;9.516;2023-06-26T10:29:42;5.80;;;5.25;;
8337;SDS011;4206;48.634;9.516;2023-06-26T10:32:12;5.65;;;5.15;;
8337;SDS011;4206;48.634;9.516;2023-06-26T10:34:39;6.65;;;5.25;;
8337;SDS011;4206;48.634;9.516;2023-06-26T10:37:07;9.75;;;5.70;;
8337;SDS011;4206;48.634;9.516;2023-06-26T10:42:18;5.60;;;5.05;;
8337;SDS011;4206;48.634;9.516;2023-06-26T10:44:47;6.22;;;5.60;;
8337;SDS011;4206;48.634;9.516;2023-06-26T10:53:07;6.30;;;5.35;;
8337;SDS011;4206;48.634;9.516;2023-06-26T10:55:35;5.47;;;4.97;;
8337;SDS011;4206;48.634;9.516;2023-06-26T10:58:03;8.10;;;5.50;;
8337;SDS011;4206;48.634;9.516;2023-06-26T11:00:30;9.98;;;5.90;;
8337;SDS011;4206;48.634;9.516;2023-06-26T11:02:58;6.88;;;6.03;;
8337;SDS011;4206;48.634;9.516;2023-06-26T11:05:28;6.53;;;5.47;;
8337;SDS011;4206;48.634;9.516;2023-06-26T11:10:50;6.05;;;5.40;;
8337;SDS011;4206;48.634;9.516;2023-06-26T11:13:20;6.13;;;5.53;;
8337;SDS011;4206;48.634;9.516;2023-06-26T11:15:48;6.10;;;5.50;;
8337;SDS011;4206;48.634;9.516;2023-06-26T11:18:16;8.13;;;5.55;;
8337;SDS011;4206;48.634;9.516;2023-06-26T11:20:43;9.23;;;5.15;;
8337;SDS011;4206;48.634;9.516;2023-06-26T11:23:10;6.28;;;4.90;;
8337;SDS011;4206;48.634;9.516;2023-06-26T11:25:38;6.30;;;5.65;;
8337;SDS011;4206;48.634;9.516;2023-06-26T11:28:05;8.02;;;5.47;;
8337;SDS011;4206;48.634;9.516;2023-06-26T11:30:35;5.30;;;4.45;;
8337;SDS011;4206;48.634;9.516;2023-06-26T11:33:04;5.70;;;5.00;;
8337;SDS011;4206;48.634;9.516;2023-06-26T11:35:33;8.23;;;5.85;;
8337;SDS011;4206;48.634;9.516;2023-06-26T11:38:01;8.18;;;4.97;;
8337;SDS011;4206;48.634;9.516;2023-06-26T11:40:32;8.70;;;5.78;;
8337;SDS011;4206;48.634;9.516;2023-06-26T11:43:01;10.02;;;5.03;;
8337;SDS011;4206;48.634;9.516;2023-06-26T11:45:30;6.40;;;5.07;;
8337;SDS011;4206;48.634;9.516;2023-06-26T11:47:58;8.60;;;5.88;;
8337;SDS011;4206;48.634;9.516;2023-06-26T11:50:27;9.10;;;5.65;;
8337;SDS011;4206;48.634;9.516;2023-06-26T11:52:56;6.03;;;5.43;;
8337;SDS011;4206;48.634;9.516;2023-06-26T11:55:24;6.03;;;5.53;;
8337;SDS011;4206;48.634;9.516;2023-06-26T11:57:53;5.72;;;5.18;;
8337;SDS011;4206;48.634;9.516;2023-06-26T12:00:21;7.53;;;5.93;;
8337;SDS011;4206;48.634;9.516;2023-06-26T12:02:48;6.82;;;5.55;;
8337;SDS011;4206;48.634;9.516;2023-06-26T12:05:16;7.30;;;6.20;;
8337;SDS011;4206;48.634;9.516;2023-06-26T12:07:44;9.15;;;5.45;;
8337;SDS011;4206;48.634;9.516;2023-06-26T12:10:14;7.75;;;6.28;;
8337;SDS011;4206;48.634;9.516;2023-06-26T12:12:41;8.18;;;6.32;;
8337;SDS011;4206;48.634;9.516;2023-06-26T12:15:13;7.20;;;6.60;;
8337;SDS011;4206;48.634;9.516;2023-06-26T12:17:42;6.38;;;5.65;;
8337;SDS011;4206;48.634;9.516;2023-06-26T12:22:53;6.68;;;5.88;;
8337;SDS011;4206;48.634;9.516;2023-06-26T12:25:22;7.43;;;6.20;;
8337;SDS011;4206;48.634;9.516;2023-06-26T12:27:50;7.03;;;6.40;;
8337;SDS011;4206;48.634;9.516;2023-06-26T12:30:17;6.50;;;5.85;;
8337;SDS011;4206;48.634;9.516;2023-06-26T12:32:44;7.78;;;6.25;;
8337;SDS011;4206;48.634;9.516;2023-06-26T12:35:13;6.75;;;6.05;;
8337;SDS011;4206;48.634;9.516;2023-06-26T12:37:42;9.52;;;6.55;;
8337;SDS011;4206;48.634;9.516;2023-06-26T12:40:18;7.28;;;6.57;;
8337;SDS011;4206;48.634;9.516;2023-06-26T12:42:48;6.63;;;5.55;;
8337;SDS011;4206;48.634;9.516;2023-06-26T12:45:15;9.02;;;6.38;;
8337;SDS011;4206;48.634;9.516;2023-06-26T12:47:46;5.97;;;5.43;;
8337;SDS011;4206;48.634;9.516;2023-06-26T12:50:13;8.05;;;5.43;;
8337;SDS011;4206;48.634;9.516;2023-06-26T12:52:40;6.00;;;5.40;;
8337;SDS011;4206;48.634;9.516;2023-06-26T12:55:07;6.47;;;5.88;;
8337;SDS011;4206;48.634;9.516;2023-06-26T12:57:34;6.78;;;5.97;;
8337;SDS011;4206;48.634;9.516;2023-06-26T13:00:01;7.60;;;5.63;;
8337;SDS011;4206;48.634;9.516;2023-06-26T13:02:29;9.55;;;5.25;;
8337;SDS011;4206;48.634;9.516;2023-06-26T13:04:56;6.05;;;5.38;;
8337;SDS011;4206;48.634;9.516;2023-06-26T13:07:23;7.00;;;5.88;;
8337;SDS011;4206;48.634;9.516;2023-06-26T13:09:52;6.40;;;5.80;;
8337;SDS011;4206;48.634;9.516;2023-06-26T13:12:19;7.70;;;6.18;;
8337;SDS011;4206;48.634;9.516;2023-06-26T13:14:45;8.00;;;5.30;;
8337;SDS011;4206;48.634;9.516;2023-06-26T13:17:12;9.05;;;5.57;;
8337;SDS011;4206;48.634;9.516;2023-06-26T13:19:39;10.68;;;5.95;;
8337;SDS011;4206;48.634;9.516;2023-06-26T13:22:06;7.88;;;5.68;;
8337;SDS011;4206;48.634;9.516;2023-06-26T13:24:33;7.20;;;6.18;;
8337;SDS011;4206;48.634;9.516;2023-06-26T13:27:00;6.80;;;6.20;;
8337;SDS011;4206;48.634;9.516;2023-06-26T13:29:27;8.15;;;5.80;;
8337;SDS011;4206;48.634;9.516;2023-06-26T13:31:54;7.93;;;6.43;;
8337;SDS011;4206;48.634;9.516;2023-06-26T13:34:23;8.80;;;6.50;;
8337;SDS011;4206;48.634;9.516;2023-06-26T13:36:51;8.20;;;6.05;;
8337;SDS011;4206;48.634;9.516;2023-06-26T13:39:18;7.88;;;5.90;;
8337;SDS011;4206;48.634;9.516;2023-06-26T13:41:45;7.07;;;5.05;;
8337;SDS011;4206;48.634;9.516;2023-06-26T13:44:13;7.05;;;5.50;;
8337;SDS011;4206;48.634;9.516;2023-06-26T13:47:01;7.47;;;6.13;;
8337;SDS011;4206;48.634;9.516;2023-06-26T13:49:29;6.78;;;6.10;;
8337;SDS011;4206;48.634;9.516;2023-06-26T13:51:56;6.30;;;5.70;;
8337;SDS011;4206;48.634;9.516;2023-06-26T13:54:23;6.03;;;5.40;;
8337;SDS011;4206;48.634;9.516;2023-06-26T13:56:50;5.65;;;5.15;;
8337;SDS011;4206;48.634;9.516;2023-06-26T13:59:17;7.28;;;5.88;;
8337;SDS011;4206;48.634;9.516;2023-06-26T14:01:47;10.60;;;6.03;;
8337;SDS011;4206;48.634;9.516;2023-06-26T14:04:14;10.07;;;6.30;;
8337;SDS011;4206;48.634;9.516;2023-06-26T14:06:41;8.25;;;6.05;;
8337;SDS011;4206;48.634;9.516;2023-06-26T14:09:08;8.98;;;6.85;;
8337;SDS011;4206;48.634;9.516;2023-06-26T14:11:35;9.85;;;5.60;;
8337;SDS011;4206;48.634;9.516;2023-06-26T14:14:02;7.10;;;5.18;;
8337;SDS011;4206;48.634;9.516;2023-06-26T14:16:29;7.95;;;5.70;;
8337;SDS011;4206;48.634;9.516;2023-06-26T14:18:56;7.80;;;5.32;;
8337;SDS011;4206;48.634;9.516;2023-06-26T14:21:23;8.48;;;5.45;;
8337;SDS011;4206;48.634;9.516;2023-06-26T14:23:50;8.57;;;6.13;;
8337;SDS011;4206;48.634;9.516;2023-06-26T14:26:19;8.10;;;4.95;;
8337;SDS011;4206;48.634;9.516;2023-06-26T14:28:46;7.03;;;6.32;;
8337;SDS011;4206;48.634;9.516;2023-06-26T14:31:13;6.93;;;5.80;;
8337;SDS011;4206;48.634;9.516;2023-06-26T14:33:40;6.75;;;5.85;;
8337;SDS011;4206;48.634;9.516;2023-06-26T14:36:07;8.50;;;6.15;;
8337;SDS011;4206;48.634;9.516;2023-06-26T14:38:33;8.10;;;5.82;;
8337;SDS011;4206;48.634;9.516;2023-06-26T14:41:00;8.43;;;6.22;;
8337;SDS011;4206;48.634;9.516;2023-06-26T14:43:28;8.93;;;6.35;;
8337;SDS011;4206;48.634;9.516;2023-06-26T14:45:55;10.70;;;6.70;;
8337;SDS011;4206;48.634;9.516;2023-06-26T14:48:22;11.07;;;5.60;;
8337;SDS011;4206;48.634;9.516;2023-06-26T14:50:49;17.42;;;11.65;;
8337;SDS011;4206;48.634;9.516;2023-06-26T14:53:16;11.20;;;8.60;;
8337;SDS011;4206;48.634;9.516;2023-06-26T14:55:43;12.70;;;8.25;;
8337;SDS011;4206;48.634;9.516;2023-06-26T14:58:10;9.07;;;7.63;;
8337;SDS011;4206;48.634;9.516;2023-06-26T15:00:37;8.18;;;6.43;;
8337;SDS011;4206;48.634;9.516;2023-06-26T15:03:05;6.90;;;5.50;;
8337;SDS011;4206;48.634;9.516;2023-06-26T15:05:32;11.10;;;5.87;;
8337;SDS011;4206;48.634;9.516;2023-06-26T15:07:59;11.50;;;5.43;;
8337;SDS011;4206;48.634;9.516;2023-06-26T15:10:26;6.45;;;5.78;;
8337;SDS011;4206;48.634;9.516;2023-06-26T15:12:54;6.60;;;5.10;;
8337;SDS011;4206;48.634;9.516;2023-06-26T15:15:21;5.75;;;5.03;;
8337;SDS011;4206;48.634;9.516;2023-06-26T15:17:48;6.27;;;5.00;;
8337;SDS011;4206;48.634;9.516;2023-06-26T15:20:15;7.70;;;4.28;;
8337;SDS011;4206;48.634;9.516;2023-06-26T15:22:42;6.63;;;4.47;;
8337;SDS011;4206;48.634;9.516;2023-06-26T15:25:09;9.50;;;4.82;;
8337;SDS011;4206;48.634;9.516;2023-06-26T15:27:36;6.07;;;4.80;;
8337;SDS011;4206;48.634;9.516;2023-06-26T15:30:04;5.93;;;4.90;;
8337;SDS011;4206;48.634;9.516;2023-06-26T15:32:32;5.63;;;4.53;;
8337;SDS011;4206;48.634;9.516;2023-06-26T15:34:59;5.32;;;3.88;;
8337;SDS011;4206;48.634;9.516;2023-06-26T15:37:26;4.80;;;4.10;;
8337;SDS011;4206;48.634;9.516;2023-06-26T15:39:53;5.22;;;3.85;;
8337;SDS011;4206;48.634;9.516;2023-06-26T15:42:20;6.60;;;4.13;;